sensor_id;sensor_type;location;lat;lon;timestamp;P1;durP1;ratioP1;P2;durP2;ratioP2
24153;SDS011;12312;53.362;-1.518;2023-07-20T00:00:32;11.48;;;4.10;;
24153;SDS011;12312;53.362;-1.518;2023-07-20T00:03:16;8.55;;;4.07;;
24153;SDS011;12312;53.362;-1.518;2023-07-20T00:06:02;6.65;;;3.63;;
24153;SDS011;12312;53.362;-1.518;2023-07-20T00:08:48;5.65;;;3.80;;
24153;SDS011;12312;53.362;-1.518;2023-07-20T00:11:35;4.85;;;3.38;;
24153;SDS011;12312;53.362;-1.518;2023-07-20T00:14:20;6.47;;;3.58;;
24153;SDS011;12312;53.362;-1.518;2023-07-20T00:17:04;9.55;;;3.90;;
24153;SDS011;12312;53.362;-1.518;2023-07-20T00:19:48;8.57;;;3.78;;
24153;SDS011;12312;53.362;-1.518;2023-07-20T00:22:32;5.72;;;3.60;;
24153;SDS011;12312;53.362;-1.518;2023-07-20T00:25:17;11.05;;;4.25;;
24153;SDS011;12312;53.362;-1.518;2023-07-20T00:28:02;8.90;;;4.50;;
24153;SDS011;12312;53.362;-1.518;2023-07-20T00:30:46;10.77;;;4.57;;
24153;SDS011;12312;53.362;-1.518;2023-07-20T00:33:30;8.20;;;4.30;;
24153;SDS011;12312;53.362;-1.518;2023-07-20T00:36:14;7.03;;;4.38;;
24153;SDS011;12312;53.362;-1.518;2023-07-20T00:38:58;8.52;;;4.60;;
24153;SDS011;12312;53.362;-1.518;2023-07-20T00:41:42;9.23;;;4.90;;
24153;SDS011;12312;53.362;-1.518;2023-07-20T00:44:26;10.52;;;4.90;;
24153;SDS011;12312;53.362;-1.518;2023-07-20T00:47:10;9.13;;;5.25;;
24153;SDS011;12312;53.362;-1.518;2023-07-20T00:49:54;7.43;;;5.03;;
24153;SDS011;12312;53.362;-1.518;2023-07-20T00:52:38;9.80;;;4.63;;
24153;SDS011;12312;53.362;-1.518;2023-07-20T00:55:23;11.05;;;4.90;;
24153;SDS011;12312;53.362;-1.518;2023-07-20T00:58:08;7.00;;;4.40;;
24153;SDS011;12312;53.362;-1.518;2023-07-20T01:00:52;9.40;;;4.50;;
24153;SDS011;12312;53.362;-1.518;2023-07-20T01:03:36;6.18;;;4.22;;
24153;SDS011;12312;53.362;-1.518;2023-07-20T01:06:34;8.35;;;4.15;;
24153;SDS011;12312;53.362;-1.518;2023-07-20T01:12:47;10.45;;;4.28;;
24153;SDS011;12312;53.362;-1.518;2023-07-20T01:15:35;6.45;;;4.40;;
24153;SDS011;12312;53.362;-1.518;2023-07-20T01:18:19;9.55;;;4.50;;
24153;SDS011;12312;53.362;-1.518;2023-07-20T01:21:04;8.35;;;4.38;;
24153;SDS011;12312;53.362;-1.518;2023-07-20T01:33:00;8.07;;;4.07;;
24153;SDS011;12312;53.362;-1.518;2023-07-20T01:35:46;7.63;;;4.43;;
24153;SDS011;12312;53.362;-1.518;2023-07-20T01:38:35;11.32;;;5.10;;
24153;SDS011;12312;53.362;-1.518;2023-07-20T01:41:20;12.02;;;5.10;;
24153;SDS011;12312;53.362;-1.518;2023-07-20T01:44:04;9.85;;;4.60;;
24153;SDS011;12312;53.362;-1.518;2023-07-20T01:46:49;8.30;;;4.00;;
24153;SDS011;12312;53.362;-1.518;2023-07-20T01:49:33;7.13;;;4.25;;
24153;SDS011;12312;53.362;-1.518;2023-07-20T01:52:17;7.75;;;4.22;;
24153;SDS011;12312;53.362;-1.518;2023-07-20T01:55:01;5.53;;;4.10;;
24153;SDS011;12312;53.362;-1.518;2023-07-20T01:57:45;11.05;;;4.65;;
24153;SDS011;12312;53.362;-1.518;2023-07-20T02:00:29;12.13;;;4.45;;
24153;SDS011;12312;53.362;-1.518;2023-07-20T02:03:13;13.07;;;4.63;;
24153;SDS011;12312;53.362;-1.518;2023-07-20T02:05:58;9.55;;;4.68;;
24153;SDS011;12312;53.362;-1.518;2023-07-20T02:08:42;9.55;;;5.03;;
24153;SDS011;12312;53.362;-1.518;2023-07-20T02:11:26;12.20;;;5.03;;
24153;SDS011;12312;53.362;-1.518;2023-07-20T02:14:10;11.18;;;5.63;;
24153;SDS011;12312;53.362;-1.518;2023-07-20T02:16:54;11.25;;;5.38;;
24153;SDS011;12312;53.362;-1.518;2023-07-20T02:19:41;6.82;;;5.05;;
24153;SDS011;12312;53.362;-1.518;2023-07-20T02:22:25;7.13;;;5.03;;
24153;SDS011;12312;53.362;-1.518;2023-07-20T02:25:09;10.93;;;5.22;;
24153;SDS011;12312;53.362;-1.518;2023-07-20T02:27:53;9.60;;;5.53;;
24153;SDS011;12312;53.362;-1.518;2023-07-20T02:30:37;8.10;;;4.88;;
24153;SDS011;12312;53.362;-1.518;2023-07-20T02:33:23;8.60;;;5.65;;
24153;SDS011;12312;53.362;-1.518;2023-07-20T02:36:07;5.57;;;4.35;;
24153;SDS011;12312;53.362;-1.518;2023-07-20T02:38:51;10.75;;;5.22;;
24153;SDS011;12312;53.362;-1.518;2023-07-20T02:41:35;8.05;;;4.70;;
24153;SDS011;12312;53.362;-1.518;2023-07-20T02:44:19;7.93;;;4.82;;
24153;SDS011;12312;53.362;-1.518;2023-07-20T02:47:03;6.93;;;4.60;;
24153;SDS011;12312;53.362;-1.518;2023-07-20T02:49:48;8.77;;;5.30;;
24153;SDS011;12312;53.362;-1.518;2023-07-20T02:52:32;8.40;;;4.72;;
24153;SDS011;12312;53.362;-1.518;2023-07-20T02:55:16;9.38;;;5.35;;
24153;SDS011;12312;53.362;-1.518;2023-07-20T02:58:00;9.77;;;5.00;;
24153;SDS011;12312;53.362;-1.518;2023-07-20T03:00:44;10.20;;;5.28;;
24153;SDS011;12312;53.362;-1.518;2023-07-20T03:03:28;8.77;;;5.10;;
24153;SDS011;12312;53.362;-1.518;2023-07-20T03:06:16;12.25;;;4.80;;
24153;SDS011;12312;53.362;-1.518;2023-07-20T03:09:00;9.60;;;5.05;;
24153;SDS011;12312;53.362;-1.518;2023-07-20T03:11:44;10.80;;;5.35;;
24153;SDS011;12312;53.362;-1.518;2023-07-20T03:14:28;9.57;;;4.60;;
24153;SDS011;12312;53.362;-1.518;2023-07-20T03:17:12;7.55;;;5.28;;
24153;SDS011;12312;53.362;-1.518;2023-07-20T03:19:56;8.38;;;4.93;;
24153;SDS011;12312;53.362;-1.518;2023-07-20T03:22:40;9.65;;;5.30;;
24153;SDS011;12312;53.362;-1.518;2023-07-20T03:25:24;7.47;;;4.70;;
24153;SDS011;12312;53.362;-1.518;2023-07-20T03:28:08;13.15;;;5.15;;
24153;SDS011;12312;53.362;-1.518;2023-07-20T03:30:56;14.85;;;4.95;;
24153;SDS011;12312;53.362;-1.518;2023-07-20T03:33:40;10.75;;;4.72;;
24153;SDS011;12312;53.362;-1.518;2023-07-20T03:36:24;14.65;;;5.25;;
24153;SDS011;12312;53.362;-1.518;2023-07-20T03:39:08;9.43;;;5.25;;
24153;SDS011;12312;53.362;-1.518;2023-07-20T03:41:52;7.47;;;4.45;;
24153;SDS011;12312;53.362;-1.518;2023-07-20T03:44:36;10.70;;;5.85;;
24153;SDS011;12312;53.362;-1.518;2023-07-20T03:47:20;10.88;;;5.38;;
24153;SDS011;12312;53.362;-1.518;2023-07-20T03:50:04;11.65;;;5.20;;
24153;SDS011;12312;53.362;-1.518;2023-07-20T03:52:49;10.40;;;5.68;;
24153;SDS011;12312;53.362;-1.518;2023-07-20T03:55:33;8.70;;;5.07;;
24153;SDS011;12312;53.362;-1.518;2023-07-20T03:58:17;8.40;;;5.07;;
24153;SDS011;12312;53.362;-1.518;2023-07-20T04:01:02;10.32;;;5.05;;
24153;SDS011;12312;53.362;-1.518;2023-07-20T04:03:46;8.07;;;4.90;;
24153;SDS011;12312;53.362;-1.518;2023-07-20T04:06:30;8.93;;;5.28;;
24153;SDS011;12312;53.362;-1.518;2023-07-20T04:09:14;8.88;;;4.68;;
24153;SDS011;12312;53.362;-1.518;2023-07-20T04:11:58;8.65;;;5.22;;
24153;SDS011;12312;53.362;-1.518;2023-07-20T04:14:43;9.93;;;5.30;;
24153;SDS011;12312;53.362;-1.518;2023-07-20T04:17:27;12.35;;;5.13;;
24153;SDS011;12312;53.362;-1.518;2023-07-20T04:20:11;10.15;;;5.25;;
24153;SDS011;12312;53.362;-1.518;2023-07-20T04:22:55;12.73;;;5.43;;
24153;SDS011;12312;53.362;-1.518;2023-07-20T04:25:39;11.35;;;5.30;;
24153;SDS011;12312;53.362;-1.518;2023-07-20T04:28:23;9.27;;;5.82;;
24153;SDS011;12312;53.362;-1.518;2023-07-20T04:31:13;9.32;;;6.00;;
24153;SDS011;12312;53.362;-1.518;2023-07-20T04:33:59;10.95;;;6.50;;
24153;SDS011;12312;53.362;-1.518;2023-07-20T04:36:43;12.45;;;6.63;;
24153;SDS011;12312;53.362;-1.518;2023-07-20T04:39:26;13.82;;;6.78;;
24153;SDS011;12312;53.362;-1.518;2023-07-20T04:42:10;13.68;;;6.35;;
24153;SDS011;12312;53.362;-1.518;2023-07-20T04:44:54;13.43;;;6.55;;
24153;SDS011;12312;53.362;-1.518;2023-07-20T04:47:38;12.98;;;6.82;;
24153;SDS011;12312;53.362;-1.518;2023-07-20T04:50:22;13.75;;;7.40;;
24153;SDS011;12312;53.362;-1.518;2023-07-20T04:53:09;13.15;;;7.85;;
24153;SDS011;12312;53.362;-1.518;2023-07-20T04:55:56;16.15;;;7.72;;
24153;SDS011;12312;53.362;-1.518;2023-07-20T04:58:40;12.50;;;6.82;;
24153;SDS011;12312;53.362;-1.518;2023-07-20T05:01:24;14.23;;;7.00;;
24153;SDS011;12312;53.362;-1.518;2023-07-20T05:04:10;12.60;;;7.78;;
24153;SDS011;12312;53.362;-1.518;2023-07-20T05:06:54;14.63;;;7.13;;
24153;SDS011;12312;53.362;-1.518;2023-07-20T05:09:38;15.07;;;7.57;;
24153;SDS011;12312;53.362;-1.518;2023-07-20T05:12:22;14.43;;;7.60;;
24153;SDS011;12312;53.362;-1.518;2023-07-20T05:15:06;13.95;;;7.32;;
24153;SDS011;12312;53.362;-1.518;2023-07-20T05:17:50;14.45;;;7.38;;
24153;SDS011;12312;53.362;-1.518;2023-07-20T05:20:35;15.43;;;7.30;;
24153;SDS011;12312;53.362;-1.518;2023-07-20T05:23:19;15.20;;;7.50;;
24153;SDS011;12312;53.362;-1.518;2023-07-20T05:26:03;15.20;;;7.93;;
24153;SDS011;12312;53.362;-1.518;2023-07-20T05:28:47;16.08;;;7.80;;
24153;SDS011;12312;53.362;-1.518;2023-07-20T05:31:31;15.07;;;7.50;;
24153;SDS011;12312;53.362;-1.518;2023-07-20T05:34:16;16.77;;;8.18;;
24153;SDS011;12312;53.362;-1.518;2023-07-20T05:37:00;16.45;;;7.65;;
24153;SDS011;12312;53.362;-1.518;2023-07-20T05:39:44;13.20;;;7.43;;
24153;SDS011;12312;53.362;-1.518;2023-07-20T05:42:28;16.40;;;8.23;;
24153;SDS011;12312;53.362;-1.518;2023-07-20T05:45:12;14.90;;;7.20;;
24153;SDS011;12312;53.362;-1.518;2023-07-20T05:47:56;18.90;;;8.38;;
24153;SDS011;12312;53.362;-1.518;2023-07-20T05:50:43;13.75;;;7.55;;
24153;SDS011;12312;53.362;-1.518;2023-07-20T05:53:27;17.50;;;8.15;;
24153;SDS011;12312;53.362;-1.518;2023-07-20T05:56:11;16.65;;;7.93;;
24153;SDS011;12312;53.362;-1.518;2023-07-20T05:58:55;21.65;;;9.30;;
24153;SDS011;12312;53.362;-1.518;2023-07-20T06:01:39;19.50;;;8.65;;
24153;SDS011;12312;53.362;-1.518;2023-07-20T06:04:23;14.65;;;8.25;;
24153;SDS011;12312;53.362;-1.518;2023-07-20T06:07:07;18.13;;;8.50;;
24153;SDS011;12312;53.362;-1.518;2023-07-20T06:09:51;19.50;;;9.63;;
24153;SDS011;12312;53.362;-1.518;2023-07-20T06:12:35;22.23;;;10.40;;
24153;SDS011;12312;53.362;-1.518;2023-07-20T06:15:26;20.60;;;10.07;;
24153;SDS011;12312;53.362;-1.518;2023-07-20T06:18:12;20.67;;;10.45;;
24153;SDS011;12312;53.362;-1.518;2023-07-20T06:20:56;20.45;;;10.25;;
24153;SDS011;12312;53.362;-1.518;2023-07-20T06:23:40;19.30;;;9.60;;
24153;SDS011;12312;53.362;-1.518;2023-07-20T06:26:25;22.35;;;9.98;;
24153;SDS011;12312;53.362;-1.518;2023-07-20T06:29:08;20.13;;;10.20;;
24153;SDS011;12312;53.362;-1.518;2023-07-20T06:31:52;18.55;;;9.75;;
24153;SDS011;12312;53.362;-1.518;2023-07-20T06:34:36;21.23;;;10.10;;
24153;SDS011;12312;53.362;-1.518;2023-07-20T06:37:21;20.77;;;10.55;;
24153;SDS011;12312;53.362;-1.518;2023-07-20T06:40:05;22.60;;;10.93;;
24153;SDS011;12312;53.362;-1.518;2023-07-20T06:42:52;20.42;;;10.93;;
24153;SDS011;12312;53.362;-1.518;2023-07-20T06:45:36;22.70;;;10.63;;
24153;SDS011;12312;53.362;-1.518;2023-07-20T06:48:21;21.75;;;12.05;;
24153;SDS011;12312;53.362;-1.518;2023-07-20T06:51:05;23.85;;;11.65;;
24153;SDS011;12312;53.362;-1.518;2023-07-20T06:53:49;21.85;;;11.00;;
24153;SDS011;12312;53.362;-1.518;2023-07-20T06:56:33;23.25;;;10.98;;
24153;SDS011;12312;53.362;-1.518;2023-07-20T06:59:18;20.23;;;11.68;;
24153;SDS011;12312;53.362;-1.518;2023-07-20T07:02:02;19.40;;;10.40;;
24153;SDS011;12312;53.362;-1.518;2023-07-20T07:04:46;20.13;;;11.32;;
24153;SDS011;12312;53.362;-1.518;2023-07-20T07:07:30;26.98;;;11.57;;
24153;SDS011;12312;53.362;-1.518;2023-07-20T07:10:14;23.15;;;11.63;;
24153;SDS011;12312;53.362;-1.518;2023-07-20T07:12:58;20.35;;;10.88;;
24153;SDS011;12312;53.362;-1.518;2023-07-20T07:15:42;22.98;;;11.40;;
24153;SDS011;12312;53.362;-1.518;2023-07-20T07:18:26;22.95;;;11.73;;
24153;SDS011;12312;53.362;-1.518;2023-07-20T07:21:10;23.83;;;12.63;;
24153;SDS011;12312;53.362;-1.518;2023-07-20T07:23:54;24.13;;;12.32;;
24153;SDS011;12312;53.362;-1.518;2023-07-20T07:26:41;21.25;;;12.05;;
24153;SDS011;12312;53.362;-1.518;2023-07-20T07:29:25;21.73;;;12.73;;
24153;SDS011;12312;53.362;-1.518;2023-07-20T07:32:09;21.85;;;11.63;;
24153;SDS011;12312;53.362;-1.518;2023-07-20T07:34:53;22.67;;;12.43;;
24153;SDS011;12312;53.362;-1.518;2023-07-20T07:37:38;24.25;;;12.10;;
24153;SDS011;12312;53.362;-1.518;2023-07-20T07:40:22;22.60;;;12.10;;
24153;SDS011;12312;53.362;-1.518;2023-07-20T07:43:06;22.27;;;12.20;;
24153;SDS011;12312;53.362;-1.518;2023-07-20T07:45:54;21.73;;;11.80;;
24153;SDS011;12312;53.362;-1.518;2023-07-20T07:48:39;21.70;;;12.13;;
24153;SDS011;12312;53.362;-1.518;2023-07-20T07:51:23;19.00;;;11.63;;
24153;SDS011;12312;53.362;-1.518;2023-07-20T07:54:07;23.63;;;11.68;;
24153;SDS011;12312;53.362;-1.518;2023-07-20T07:56:51;23.23;;;11.18;;
24153;SDS011;12312;53.362;-1.518;2023-07-20T07:59:35;19.75;;;11.45;;
24153;SDS011;12312;53.362;-1.518;2023-07-20T08:02:20;19.33;;;10.67;;
24153;SDS011;12312;53.362;-1.518;2023-07-20T08:05:05;20.83;;;10.48;;
24153;SDS011;12312;53.362;-1.518;2023-07-20T08:07:49;20.83;;;11.10;;
24153;SDS011;12312;53.362;-1.518;2023-07-20T08:10:33;21.35;;;10.68;;
24153;SDS011;12312;53.362;-1.518;2023-07-20T08:13:17;19.63;;;11.48;;
24153;SDS011;12312;53.362;-1.518;2023-07-20T08:16:01;16.45;;;9.65;;
24153;SDS011;12312;53.362;-1.518;2023-07-20T08:18:48;17.40;;;10.60;;
24153;SDS011;12312;53.362;-1.518;2023-07-20T08:21:32;23.35;;;11.43;;
24153;SDS011;12312;53.362;-1.518;2023-07-20T08:24:16;19.98;;;10.20;;
24153;SDS011;12312;53.362;-1.518;2023-07-20T08:27:00;18.08;;;10.93;;
24153;SDS011;12312;53.362;-1.518;2023-07-20T08:29:44;20.33;;;10.40;;
24153;SDS011;12312;53.362;-1.518;2023-07-20T08:32:32;18.45;;;9.90;;
24153;SDS011;12312;53.362;-1.518;2023-07-20T08:35:16;20.50;;;10.13;;
24153;SDS011;12312;53.362;-1.518;2023-07-20T08:38:02;18.40;;;9.73;;
24153;SDS011;12312;53.362;-1.518;2023-07-20T08:40:48;15.90;;;9.45;;
24153;SDS011;12312;53.362;-1.518;2023-07-20T08:43:32;16.40;;;9.63;;
24153;SDS011;12312;53.362;-1.518;2023-07-20T08:46:17;16.50;;;9.45;;
24153;SDS011;12312;53.362;-1.518;2023-07-20T08:49:01;16.55;;;8.65;;
24153;SDS011;12312;53.362;-1.518;2023-07-20T08:51:46;19.05;;;9.18;;
24153;SDS011;12312;53.362;-1.518;2023-07-20T08:54:31;15.90;;;8.85;;
24153;SDS011;12312;53.362;-1.518;2023-07-20T08:57:16;17.65;;;8.73;;
24153;SDS011;12312;53.362;-1.518;2023-07-20T09:00:03;15.45;;;8.77;;
24153;SDS011;12312;53.362;-1.518;2023-07-20T09:02:53;13.75;;;8.55;;
24153;SDS011;12312;53.362;-1.518;2023-07-20T09:05:38;17.50;;;9.20;;
24153;SDS011;12312;53.362;-1.518;2023-07-20T09:08:24;16.38;;;9.93;;
24153;SDS011;12312;53.362;-1.518;2023-07-20T09:11:09;14.52;;;9.18;;
24153;SDS011;12312;53.362;-1.518;2023-07-20T09:14:08;14.43;;;8.77;;
24153;SDS011;12312;53.362;-1.518;2023-07-20T09:16:54;17.20;;;9.57;;
24153;SDS011;12312;53.362;-1.518;2023-07-20T09:19:45;15.23;;;8.65;;
24153;SDS011;12312;53.362;-1.518;2023-07-20T09:22:30;17.92;;;9.75;;
24153;SDS011;12312;53.362;-1.518;2023-07-20T09:25:18;17.17;;;9.07;;
24153;SDS011;12312;53.362;-1.518;2023-07-20T09:28:06;15.18;;;8.48;;
24153;SDS011;12312;53.362;-1.518;2023-07-20T09:30:50;16.02;;;9.15;;
24153;SDS011;12312;53.362;-1.518;2023-07-20T09:33:34;13.40;;;9.13;;
24153;SDS011;12312;53.362;-1.518;2023-07-20T09:36:22;17.08;;;10.02;;
24153;SDS011;12312;53.362;-1.518;2023-07-20T09:39:06;14.57;;;9.15;;
24153;SDS011;12312;53.362;-1.518;2023-07-20T09:41:51;14.57;;;9.55;;
24153;SDS011;12312;53.362;-1.518;2023-07-20T09:44:35;20.02;;;9.80;;
24153;SDS011;12312;53.362;-1.518;2023-07-20T09:47:23;14.13;;;9.13;;
24153;SDS011;12312;53.362;-1.518;2023-07-20T09:50:08;14.75;;;9.18;;
24153;SDS011;12312;53.362;-1.518;2023-07-20T09:52:54;16.08;;;9.35;;
24153;SDS011;12312;53.362;-1.518;2023-07-20T09:55:39;16.50;;;9.32;;
24153;SDS011;12312;53.362;-1.518;2023-07-20T09:58:28;19.55;;;10.00;;
24153;SDS011;12312;53.362;-1.518;2023-07-20T10:01:17;15.93;;;9.15;;
24153;SDS011;12312;53.362;-1.518;2023-07-20T10:04:05;15.90;;;9.93;;
24153;SDS011;12312;53.362;-1.518;2023-07-20T10:06:52;16.70;;;9.70;;
24153;SDS011;12312;53.362;-1.518;2023-07-20T10:09:39;17.60;;;9.38;;
24153;SDS011;12312;53.362;-1.518;2023-07-20T10:12:24;17.98;;;9.75;;
24153;SDS011;12312;53.362;-1.518;2023-07-20T10:15:24;18.10;;;10.05;;
24153;SDS011;12312;53.362;-1.518;2023-07-20T10:21:16;16.55;;;10.63;;
24153;SDS011;12312;53.362;-1.518;2023-07-20T10:24:01;21.00;;;10.43;;
24153;SDS011;12312;53.362;-1.518;2023-07-20T10:26:46;19.10;;;10.40;;
24153;SDS011;12312;53.362;-1.518;2023-07-20T10:29:31;16.73;;;10.13;;
24153;SDS011;12312;53.362;-1.518;2023-07-20T10:32:16;18.27;;;10.25;;
24153;SDS011;12312;53.362;-1.518;2023-07-20T10:35:01;17.55;;;10.15;;
24153;SDS011;12312;53.362;-1.518;2023-07-20T10:40:33;18.25;;;10.77;;
24153;SDS011;12312;53.362;-1.518;2023-07-20T10:43:21;17.35;;;9.65;;
24153;SDS011;12312;53.362;-1.518;2023-07-20T10:46:06;17.20;;;9.93;;
24153;SDS011;12312;53.362;-1.518;2023-07-20T10:49:00;16.30;;;10.65;;
24153;SDS011;12312;53.362;-1.518;2023-07-20T10:51:47;19.40;;;10.13;;
24153;SDS011;12312;53.362;-1.518;2023-07-20T10:54:46;16.45;;;10.13;;
24153;SDS011;12312;53.362;-1.518;2023-07-20T10:57:32;15.70;;;9.75;;
24153;SDS011;12312;53.362;-1.518;2023-07-20T11:00:18;17.73;;;9.50;;
24153;SDS011;12312;53.362;-1.518;2023-07-20T11:03:03;17.08;;;10.48;;
24153;SDS011;12312;53.362;-1.518;2023-07-20T11:05:48;18.25;;;10.65;;
24153;SDS011;12312;53.362;-1.518;2023-07-20T11:08:42;18.20;;;10.25;;
24153;SDS011;12312;53.362;-1.518;2023-07-20T11:11:28;15.77;;;9.52;;
24153;SDS011;12312;53.362;-1.518;2023-07-20T11:14:21;16.83;;;9.55;;
24153;SDS011;12312;53.362;-1.518;2023-07-20T11:17:12;15.05;;;9.02;;
24153;SDS011;12312;53.362;-1.518;2023-07-20T11:20:01;18.15;;;9.88;;
24153;SDS011;12312;53.362;-1.518;2023-07-20T11:22:46;14.88;;;8.82;;
24153;SDS011;12312;53.362;-1.518;2023-07-20T11:25:38;15.55;;;9.40;;
24153;SDS011;12312;53.362;-1.518;2023-07-20T11:28:22;15.38;;;8.85;;
24153;SDS011;12312;53.362;-1.518;2023-07-20T11:31:06;15.77;;;8.63;;
24153;SDS011;12312;53.362;-1.518;2023-07-20T11:33:50;13.60;;;7.82;;
24153;SDS011;12312;53.362;-1.518;2023-07-20T11:36:34;14.23;;;8.35;;
24153;SDS011;12312;53.362;-1.518;2023-07-20T11:39:19;13.30;;;8.27;;
24153;SDS011;12312;53.362;-1.518;2023-07-20T11:42:05;12.57;;;8.63;;
24153;SDS011;12312;53.362;-1.518;2023-07-20T11:44:51;15.73;;;8.48;;
24153;SDS011;12312;53.362;-1.518;2023-07-20T11:47:39;13.57;;;8.65;;
24153;SDS011;12312;53.362;-1.518;2023-07-20T11:50:25;13.35;;;8.23;;
24153;SDS011;12312;53.362;-1.518;2023-07-20T11:53:09;13.23;;;7.20;;
24153;SDS011;12312;53.362;-1.518;2023-07-20T11:55:54;13.43;;;7.38;;
24153;SDS011;12312;53.362;-1.518;2023-07-20T11:58:42;12.35;;;8.05;;
24153;SDS011;12312;53.362;-1.518;2023-07-20T12:01:28;12.30;;;7.05;;
24153;SDS011;12312;53.362;-1.518;2023-07-20T12:04:14;11.02;;;7.72;;
24153;SDS011;12312;53.362;-1.518;2023-07-20T12:06:58;13.20;;;7.63;;
24153;SDS011;12312;53.362;-1.518;2023-07-20T12:09:43;12.30;;;7.18;;
24153;SDS011;12312;53.362;-1.518;2023-07-20T12:12:27;9.90;;;6.45;;
24153;SDS011;12312;53.362;-1.518;2023-07-20T12:18:06;8.65;;;5.70;;
24153;SDS011;12312;53.362;-1.518;2023-07-20T12:20:50;9.35;;;6.05;;
24153;SDS011;12312;53.362;-1.518;2023-07-20T12:23:43;8.02;;;5.60;;
24153;SDS011;12312;53.362;-1.518;2023-07-20T12:26:28;7.93;;;5.43;;
24153;SDS011;12312;53.362;-1.518;2023-07-20T12:29:13;8.60;;;5.65;;
24153;SDS011;12312;53.362;-1.518;2023-07-20T12:31:57;8.70;;;6.35;;
24153;SDS011;12312;53.362;-1.518;2023-07-20T12:34:41;9.20;;;5.93;;
24153;SDS011;12312;53.362;-1.518;2023-07-20T12:37:25;11.23;;;6.80;;
24153;SDS011;12312;53.362;-1.518;2023-07-20T12:40:10;9.02;;;5.80;;
24153;SDS011;12312;53.362;-1.518;2023-07-20T12:42:54;9.30;;;5.47;;
24153;SDS011;12312;53.362;-1.518;2023-07-20T12:45:39;9.02;;;6.38;;
24153;SDS011;12312;53.362;-1.518;2023-07-20T12:48:24;9.13;;;6.27;;
24153;SDS011;12312;53.362;-1.518;2023-07-20T12:51:08;8.45;;;6.18;;
24153;SDS011;12312;53.362;-1.518;2023-07-20T12:53:53;7.77;;;5.37;;
24153;SDS011;12312;53.362;-1.518;2023-07-20T12:56:37;10.73;;;6.20;;
24153;SDS011;12312;53.362;-1.518;2023-07-20T12:59:21;10.43;;;5.85;;
24153;SDS011;12312;53.362;-1.518;2023-07-20T13:02:05;7.53;;;5.60;;
24153;SDS011;12312;53.362;-1.518;2023-07-20T13:04:49;9.98;;;5.80;;
24153;SDS011;12312;53.362;-1.518;2023-07-20T13:07:35;9.15;;;5.53;;
24153;SDS011;12312;53.362;-1.518;2023-07-20T13:10:20;9.02;;;5.57;;
24153;SDS011;12312;53.362;-1.518;2023-07-20T13:13:04;6.57;;;5.20;;
24153;SDS011;12312;53.362;-1.518;2023-07-20T13:15:48;7.78;;;5.07;;
24153;SDS011;12312;53.362;-1.518;2023-07-20T13:18:33;7.22;;;4.93;;
24153;SDS011;12312;53.362;-1.518;2023-07-20T13:21:17;7.88;;;5.65;;
24153;SDS011;12312;53.362;-1.518;2023-07-20T13:24:06;8.57;;;5.70;;
24153;SDS011;12312;53.362;-1.518;2023-07-20T13:26:50;8.57;;;5.20;;
24153;SDS011;12312;53.362;-1.518;2023-07-20T13:29:35;8.45;;;5.15;;
24153;SDS011;12312;53.362;-1.518;2023-07-20T13:32:19;7.07;;;5.28;;
24153;SDS011;12312;53.362;-1.518;2023-07-20T13:35:03;7.60;;;4.70;;
24153;SDS011;12312;53.362;-1.518;2023-07-20T13:37:47;6.85;;;5.00;;
24153;SDS011;12312;53.362;-1.518;2023-07-20T13:40:31;7.50;;;5.28;;
24153;SDS011;12312;53.362;-1.518;2023-07-20T13:43:15;7.45;;;5.22;;
24153;SDS011;12312;53.362;-1.518;2023-07-20T13:45:59;10.95;;;5.22;;
24153;SDS011;12312;53.362;-1.518;2023-07-20T13:48:43;8.32;;;5.10;;
24153;SDS011;12312;53.362;-1.518;2023-07-20T13:51:27;7.50;;;4.80;;
24153;SDS011;12312;53.362;-1.518;2023-07-20T13:54:11;6.28;;;4.72;;
24153;SDS011;12312;53.362;-1.518;2023-07-20T13:56:56;7.35;;;4.47;;
24153;SDS011;12312;53.362;-1.518;2023-07-20T13:59:40;7.18;;;4.25;;
24153;SDS011;12312;53.362;-1.518;2023-07-20T14:02:25;8.17;;;5.20;;
24153;SDS011;12312;53.362;-1.518;2023-07-20T14:05:09;19.50;;;6.38;;
24153;SDS011;12312;53.362;-1.518;2023-07-20T14:07:53;8.02;;;5.97;;
24153;SDS011;12312;53.362;-1.518;2023-07-20T14:10:37;7.60;;;4.60;;
24153;SDS011;12312;53.362;-1.518;2023-07-20T14:13:21;5.32;;;4.10;;
24153;SDS011;12312;53.362;-1.518;2023-07-20T14:16:05;8.88;;;4.15;;
24153;SDS011;12312;53.362;-1.518;2023-07-20T14:18:50;6.47;;;4.55;;
24153;SDS011;12312;53.362;-1.518;2023-07-20T14:21:34;8.98;;;5.30;;
24153;SDS011;12312;53.362;-1.518;2023-07-20T14:24:18;8.85;;;4.30;;
24153;SDS011;12312;53.362;-1.518;2023-07-20T14:27:02;8.55;;;5.10;;
24153;SDS011;12312;53.362;-1.518;2023-07-20T14:29:47;7.40;;;4.00;;
24153;SDS011;12312;53.362;-1.518;2023-07-20T14:32:31;8.10;;;4.82;;
24153;SDS011;12312;53.362;-1.518;2023-07-20T14:35:16;7.22;;;4.88;;
24153;SDS011;12312;53.362;-1.518;2023-07-20T14:38:00;7.00;;;4.97;;
24153;SDS011;12312;53.362;-1.518;2023-07-20T14:40:45;7.13;;;4.47;;
24153;SDS011;12312;53.362;-1.518;2023-07-20T14:43:29;10.55;;;4.80;;
24153;SDS011;12312;53.362;-1.518;2023-07-20T14:46:13;9.55;;;5.10;;
24153;SDS011;12312;53.362;-1.518;2023-07-20T14:48:57;7.25;;;4.97;;
24153;SDS011;12312;53.362;-1.518;2023-07-20T14:51:42;7.80;;;4.90;;
24153;SDS011;12312;53.362;-1.518;2023-07-20T14:54:30;8.18;;;4.72;;
24153;SDS011;12312;53.362;-1.518;2023-07-20T14:57:14;7.88;;;4.57;;
24153;SDS011;12312;53.362;-1.518;2023-07-20T14:59:59;11.15;;;5.03;;
24153;SDS011;12312;53.362;-1.518;2023-07-20T15:02:43;9.00;;;4.88;;
24153;SDS011;12312;53.362;-1.518;2023-07-20T15:05:27;9.23;;;4.93;;
24153;SDS011;12312;53.362;-1.518;2023-07-20T15:08:12;6.47;;;4.57;;
24153;SDS011;12312;53.362;-1.518;2023-07-20T15:10:56;6.93;;;4.43;;
24153;SDS011;12312;53.362;-1.518;2023-07-20T15:13:40;9.77;;;4.65;;
24153;SDS011;12312;53.362;-1.518;2023-07-20T15:16:26;6.75;;;4.32;;
24153;SDS011;12312;53.362;-1.518;2023-07-20T15:19:10;7.35;;;5.28;;
24153;SDS011;12312;53.362;-1.518;2023-07-20T15:21:57;6.43;;;4.40;;
24153;SDS011;12312;53.362;-1.518;2023-07-20T15:24:40;9.52;;;4.88;;
24153;SDS011;12312;53.362;-1.518;2023-07-20T15:27:25;6.97;;;4.80;;
24153;SDS011;12312;53.362;-1.518;2023-07-20T15:30:09;9.48;;;4.47;;
24153;SDS011;12312;53.362;-1.518;2023-07-20T15:32:54;10.63;;;4.80;;
24153;SDS011;12312;53.362;-1.518;2023-07-20T15:35:40;9.68;;;4.60;;
24153;SDS011;12312;53.362;-1.518;2023-07-20T15:38:24;8.63;;;4.72;;
24153;SDS011;12312;53.362;-1.518;2023-07-20T15:41:09;8.50;;;5.22;;
24153;SDS011;12312;53.362;-1.518;2023-07-20T15:43:54;9.25;;;5.05;;
24153;SDS011;12312;53.362;-1.518;2023-07-20T15:49:25;9.52;;;5.28;;
24153;SDS011;12312;53.362;-1.518;2023-07-20T15:52:10;10.30;;;5.30;;
24153;SDS011;12312;53.362;-1.518;2023-07-20T15:54:56;7.25;;;5.15;;
24153;SDS011;12312;53.362;-1.518;2023-07-20T15:57:41;8.60;;;5.10;;
24153;SDS011;12312;53.362;-1.518;2023-07-20T16:00:25;10.40;;;4.90;;
24153;SDS011;12312;53.362;-1.518;2023-07-20T16:03:09;8.55;;;5.43;;
24153;SDS011;12312;53.362;-1.518;2023-07-20T16:05:54;9.27;;;4.97;;
24153;SDS011;12312;53.362;-1.518;2023-07-20T16:08:38;8.30;;;5.20;;
24153;SDS011;12312;53.362;-1.518;2023-07-20T16:11:22;6.90;;;5.00;;
24153;SDS011;12312;53.362;-1.518;2023-07-20T16:14:07;9.90;;;4.80;;
24153;SDS011;12312;53.362;-1.518;2023-07-20T16:16:51;8.80;;;5.60;;
24153;SDS011;12312;53.362;-1.518;2023-07-20T16:19:35;6.95;;;4.20;;
24153;SDS011;12312;53.362;-1.518;2023-07-20T16:22:18;9.55;;;4.70;;
24153;SDS011;12312;53.362;-1.518;2023-07-20T16:25:03;7.38;;;5.22;;
24153;SDS011;12312;53.362;-1.518;2023-07-20T16:27:48;10.73;;;4.70;;
24153;SDS011;12312;53.362;-1.518;2023-07-20T16:30:32;7.78;;;4.88;;